Adin, California
Current Conditions -  °F | °C
As of 11:55 PM on Saturday 25 Oct 2014 (Local Time) from KAAT Reporting Station
Light Rain Light Rain  
Wind Chill: 39°   Ceiling: 1800
Heat Index: 43°   Visibility: 10mi
Dew Point: 39°   Wind: 6mph
Humidity: 86%   Direction: 180°S
Pressure: 30.05"   Gusts: NA
Location:  41.19°N, 120.95°W
Report Text: KAAT 260655Z AUTO 18005KT 10SM -RA BKN018 OVC024 06/04 A3005 RMK AO2 RAB30 SLP165 P0000 T00610039 $
Loading
Personal Weather Stations






























Interactive Weather Map
Tropical Storm Tracking
New forecast layout! Learn more

10-Day Weather Forecast

Advertisements
Track Severe Weather on mobile